HSO01 EDWE-EDWE

Flight info

Callsign HSO01
Flight time 1h 14m
Altitude 3000
Route VFR
Aircraft A139/L-SFG/C

Departure

Time 2026-04-13 17:25
Airport Emden Airport (EDWE)

Arrival

Time 2026-04-13 18:40
Airport Emden Airport (EDWE)
Time Latitude Longitude Altitude Speed Heading
2026-04-13 17:16 53.38964 7.23082 0 ft 0 kts 250°
2026-04-13 17:23 53.38963 7.23068 0 ft 2 kts 286°
2026-04-13 17:23 53.38994 7.23065 0 ft 6 kts 12°
2026-04-13 17:23 53.39050 7.23078 0 ft 8 kts
2026-04-13 17:23 53.39092 7.23088 -1 ft 5 kts
2026-04-13 17:24 53.39133 7.23099 -1 ft 5 kts 12°
2026-04-13 17:24 53.39191 7.23062 55 ft 23 kts 338°
2026-04-13 17:24 53.39483 7.22664 261 ft 86 kts 306°
2026-04-13 17:24 53.39944 7.21696 425 ft 120 kts 317°
2026-04-13 17:25 53.40603 7.20672 557 ft 138 kts 323°
2026-04-13 17:25 53.41340 7.19613 759 ft 142 kts 322°
2026-04-13 17:25 53.42105 7.18498 879 ft 149 kts 321°
2026-04-13 17:25 53.42894 7.17343 1041 ft 151 kts 321°
2026-04-13 17:26 53.43690 7.16173 1190 ft 151 kts 321°
2026-04-13 17:26 53.44484 7.15006 1352 ft 152 kts 321°
2026-04-13 17:26 53.45296 7.13814 1552 ft 152 kts 322°
2026-04-13 17:26 53.46091 7.12652 1731 ft 152 kts 322°
2026-04-13 17:27 53.47435 7.10675 2025 ft 152 kts 322°
2026-04-13 17:27 53.48243 7.09488 2218 ft 153 kts 322°
2026-04-13 17:27 53.49058 7.08295 2284 ft 160 kts 322°
2026-04-13 17:28 53.49913 7.07039 2237 ft 163 kts 320°
2026-04-13 17:28 53.50763 7.05774 2197 ft 164 kts 320°
2026-04-13 17:28 53.51472 7.04727 2186 ft 163 kts 320°
2026-04-13 17:28 53.52325 7.03464 2171 ft 164 kts 321°
2026-04-13 17:29 53.53175 7.02214 2172 ft 164 kts 321°
2026-04-13 17:29 53.54034 7.00946 2173 ft 163 kts 321°
2026-04-13 17:29 53.54888 6.99685 2175 ft 163 kts 321°
2026-04-13 17:29 53.55737 6.98431 2179 ft 163 kts 321°
2026-04-13 17:30 53.56587 6.97177 2178 ft 162 kts 321°
2026-04-13 17:30 53.57436 6.95921 2177 ft 162 kts 321°
2026-04-13 17:30 53.58271 6.94683 2169 ft 162 kts 321°
2026-04-13 17:30 53.59129 6.93412 2199 ft 163 kts 322°
2026-04-13 17:31 53.59977 6.92165 2271 ft 162 kts 321°
2026-04-13 17:31 53.60827 6.90900 2206 ft 162 kts 320°
2026-04-13 17:31 53.61676 6.89639 2177 ft 162 kts 320°
2026-04-13 17:31 53.62521 6.88382 2161 ft 162 kts 321°
2026-04-13 17:32 53.63374 6.87116 2158 ft 163 kts 321°
2026-04-13 17:32 53.64216 6.85868 2168 ft 163 kts 321°
2026-04-13 17:32 53.65077 6.84590 2175 ft 163 kts 321°
2026-04-13 17:32 53.65921 6.83335 2175 ft 163 kts 321°
2026-04-13 17:33 53.66780 6.82057 2179 ft 163 kts 321°
2026-04-13 17:33 53.67630 6.80790 2180 ft 163 kts 321°
2026-04-13 17:33 53.68482 6.79521 2181 ft 163 kts 321°
2026-04-13 17:33 53.69331 6.78255 2177 ft 163 kts 321°
2026-04-13 17:34 53.71034 6.75715 2184 ft 163 kts 321°
2026-04-13 17:34 53.71882 6.74452 2189 ft 163 kts 321°
2026-04-13 17:34 53.72736 6.73175 2184 ft 163 kts 321°
2026-04-13 17:35 53.73581 6.71911 2181 ft 163 kts 321°
2026-04-13 17:35 53.74431 6.70641 2181 ft 163 kts 321°
2026-04-13 17:35 53.75275 6.69377 2185 ft 163 kts 321°
2026-04-13 17:35 53.76127 6.68100 2189 ft 162 kts 321°
2026-04-13 17:36 53.76981 6.66820 2183 ft 163 kts 321°
2026-04-13 17:36 53.77825 6.65554 2182 ft 163 kts 321°
2026-04-13 17:36 53.78677 6.64275 2188 ft 162 kts 321°
2026-04-13 17:36 53.79515 6.63021 2187 ft 162 kts 321°
2026-04-13 17:37 53.80358 6.61750 2182 ft 162 kts 321°
2026-04-13 17:37 53.81207 6.60491 2064 ft 162 kts 321°
2026-04-13 17:37 53.82061 6.59240 1888 ft 162 kts 321°
2026-04-13 17:37 53.82912 6.57996 1700 ft 162 kts 321°
2026-04-13 17:38 53.83770 6.56750 1517 ft 162 kts 321°
2026-04-13 17:38 53.84616 6.55528 1336 ft 161 kts 321°
2026-04-13 17:38 53.85473 6.54292 1147 ft 160 kts 321°
2026-04-13 17:38 53.86314 6.53079 968 ft 160 kts 321°
2026-04-13 17:39 53.87166 6.51859 911 ft 159 kts 327°
2026-04-13 17:39 53.88124 6.51161 1113 ft 133 kts 339°
2026-04-13 17:39 53.88908 6.50749 1002 ft 104 kts 341°
2026-04-13 17:39 53.89557 6.50397 895 ft 94 kts 342°
2026-04-13 17:40 53.90188 6.50139 929 ft 92 kts 349°
2026-04-13 17:40 53.90812 6.49894 969 ft 93 kts 349°
2026-04-13 17:40 53.91445 6.49654 989 ft 94 kts 349°
2026-04-13 17:40 53.92092 6.49425 998 ft 94 kts 351°
2026-04-13 17:41 53.92736 6.49292 1006 ft 88 kts 353°
2026-04-13 17:41 53.93287 6.49218 1213 ft 73 kts 11°
2026-04-13 17:41 53.93732 6.49083 1770 ft 61 kts 332°
2026-04-13 17:41 53.94289 6.48560 1397 ft 119 kts 323°
2026-04-13 17:42 53.95099 6.47678 742 ft 137 kts 353°
2026-04-13 17:42 53.95848 6.47851 864 ft 100 kts 54°
2026-04-13 17:42 53.96002 6.48993 672 ft 103 kts 116°
2026-04-13 17:42 53.95502 6.49632 676 ft 86 kts 199°
2026-04-13 17:43 53.95112 6.49226 540 ft 64 kts 273°
2026-04-13 17:43 53.95279 6.48845 292 ft 44 kts 31°
2026-04-13 17:43 53.95223 6.49178 163 ft 47 kts 208°
2026-04-13 17:43 53.95168 6.48916 172 ft 12 kts 278°
2026-04-13 17:44 53.95195 6.48831 153 ft 5 kts 275°
2026-04-13 17:44 53.95201 6.48800 130 ft 1 kts 273°
2026-04-13 17:44 53.95200 6.48800 127 ft 0 kts 272°
2026-04-13 17:47 53.95198 6.48802 136 ft 2 kts 268°
2026-04-13 17:47 53.95195 6.48846 215 ft 5 kts 275°
2026-04-13 17:48 53.95217 6.48560 374 ft 45 kts 268°
2026-04-13 17:48 53.95259 6.47787 696 ft 90 kts 271°
2026-04-13 17:48 53.95080 6.46897 1306 ft 76 kts 241°
2026-04-13 17:48 53.94832 6.45894 1529 ft 101 kts 254°
2026-04-13 17:49 53.94538 6.44715 1512 ft 114 kts 248°
2026-04-13 17:49 53.94259 6.43383 1518 ft 120 kts 250°
2026-04-13 17:49 53.93998 6.42047 1508 ft 121 kts 250°
2026-04-13 17:49 53.93908 6.40353 1468 ft 163 kts 275°
2026-04-13 17:50 53.94091 6.38452 1547 ft 166 kts 286°
2026-04-13 17:50 53.94374 6.36532 1533 ft 168 kts 286°
2026-04-13 17:50 53.94665 6.34612 1516 ft 168 kts 285°
2026-04-13 17:50 53.94961 6.32676 1502 ft 168 kts 285°
2026-04-13 17:51 53.95256 6.30768 1500 ft 167 kts 286°
2026-04-13 17:51 53.95552 6.28851 1487 ft 168 kts 285°
2026-04-13 17:51 53.95847 6.26912 1476 ft 168 kts 285°
2026-04-13 17:51 53.96144 6.25005 1353 ft 167 kts 285°
2026-04-13 17:52 53.96445 6.23109 1179 ft 167 kts 285°
2026-04-13 17:52 53.96744 6.21214 1002 ft 167 kts 285°
2026-04-13 17:52 53.97038 6.19302 936 ft 167 kts 286°
2026-04-13 17:52 53.97362 6.17408 925 ft 166 kts 297°
2026-04-13 17:53 53.97702 6.16276 974 ft 163 kts 300°
2026-04-13 17:53 53.98431 6.13985 803 ft 170 kts 304°
2026-04-13 17:53 53.99120 6.12503 988 ft 146 kts 311°
2026-04-13 17:53 53.99747 6.11243 1078 ft 136 kts 312°
2026-04-13 17:54 54.00371 6.10051 1099 ft 132 kts 315°
2026-04-13 17:54 54.00975 6.08912 1008 ft 126 kts 311°
2026-04-13 17:54 54.01529 6.07815 865 ft 118 kts 311°
2026-04-13 17:54 54.02051 6.06803 724 ft 105 kts 310°
2026-04-13 17:55 54.02483 6.05921 668 ft 88 kts 309°
2026-04-13 17:55 54.02806 6.05173 586 ft 70 kts 305°
2026-04-13 17:55 54.03061 6.04643 452 ft 45 kts 315°
2026-04-13 17:55 54.03292 6.04388 327 ft 35 kts 320°
2026-04-13 17:56 54.03505 6.04242 257 ft 33 kts 327°
2026-04-13 17:56 54.03672 6.04189 142 ft 7 kts 338°
2026-04-13 17:56 54.03690 6.04186 134 ft 1 kts 356°
2026-04-13 17:56 54.03690 6.04185 127 ft 0 kts 357°
2026-04-13 17:59 54.03686 6.04186 139 ft 4 kts 355°
2026-04-13 17:59 54.03657 6.04186 285 ft 10 kts 352°
2026-04-13 18:00 54.03722 6.04160 386 ft 51 kts 349°
2026-04-13 18:00 54.04362 6.03989 376 ft 116 kts 339°
2026-04-13 18:00 54.05184 6.03621 666 ft 125 kts 336°
2026-04-13 18:00 54.05976 6.03108 1036 ft 121 kts 331°
2026-04-13 18:01 54.06850 6.02735 892 ft 142 kts 342°
2026-04-13 18:01 54.07866 6.02321 1023 ft 154 kts 343°
2026-04-13 18:01 54.08918 6.01879 1312 ft 154 kts 342°
2026-04-13 18:01 54.09952 6.01438 1561 ft 154 kts 343°
2026-04-13 18:02 54.10998 6.00978 1818 ft 154 kts 342°
2026-04-13 18:02 54.12027 6.00526 2022 ft 155 kts 341°
2026-04-13 18:02 54.13104 6.00082 2011 ft 159 kts 342°
2026-04-13 18:02 54.14181 5.99644 2010 ft 161 kts 342°
2026-04-13 18:03 54.15274 5.99209 2021 ft 161 kts 342°
2026-04-13 18:03 54.16375 5.98771 2023 ft 161 kts 342°
2026-04-13 18:03 54.17459 5.98341 2026 ft 161 kts 342°
2026-04-13 18:03 54.18545 5.97915 2022 ft 161 kts 342°
2026-04-13 18:04 54.19635 5.97485 2014 ft 161 kts 342°
2026-04-13 18:04 54.20731 5.97054 2016 ft 161 kts 342°
2026-04-13 18:04 54.21830 5.96617 2012 ft 161 kts 342°
2026-04-13 18:04 54.22920 5.96187 2016 ft 161 kts 342°
2026-04-13 18:05 54.24015 5.95754 2016 ft 161 kts 349°
2026-04-13 18:05 54.25062 5.95183 2041 ft 158 kts 343°
2026-04-13 18:05 54.26110 5.94584 2002 ft 158 kts 343°
2026-04-13 18:05 54.27156 5.93984 1991 ft 159 kts 343°
2026-04-13 18:06 54.28221 5.93401 1683 ft 167 kts 341°
2026-04-13 18:06 54.29301 5.92778 1326 ft 155 kts 356°
2026-04-13 18:06 54.30195 5.93365 855 ft 144 kts 56°
2026-04-13 18:06 54.30049 5.94872 470 ft 140 kts 147°
2026-04-13 18:07 54.29204 5.94663 599 ft 110 kts 196°
2026-04-13 18:07 54.28578 5.94152 555 ft 92 kts 196°
2026-04-13 18:07 54.28033 5.93663 433 ft 82 kts 197°
2026-04-13 18:07 54.27634 5.93202 277 ft 51 kts 188°
2026-04-13 18:08 54.27457 5.93123 172 ft 8 kts 221°
2026-04-13 18:08 54.27394 5.93091 181 ft 14 kts 205°
2026-04-13 18:08 54.27303 5.93018 199 ft 15 kts 166°
2026-04-13 18:08 54.27232 5.92991 179 ft 6 kts 24°
2026-04-13 18:09 54.27191 5.93036 171 ft 17 kts 25°
2026-04-13 18:09 54.27111 5.93016 259 ft 16 kts 211°
2026-04-13 18:09 54.27036 5.92961 190 ft 10 kts 54°
2026-04-13 18:09 54.27001 5.93013 125 ft 13 kts 94°
2026-04-13 18:10 54.26933 5.93037 179 ft 14 kts 101°
2026-04-13 18:10 54.26862 5.92923 224 ft 14 kts 37°
2026-04-13 18:10 54.26788 5.92996 147 ft 15 kts 170°
2026-04-13 18:10 54.26767 5.92951 221 ft 6 kts 160°
2026-04-13 18:11 54.26707 5.92923 211 ft 7 kts 184°
2026-04-13 18:11 54.26638 5.92860 213 ft 21 kts 178°
2026-04-13 18:11 54.26559 5.92693 243 ft 16 kts 225°
2026-04-13 18:11 54.26361 5.92675 299 ft 51 kts 129°
2026-04-13 18:12 54.25788 5.92712 449 ft 112 kts 189°
2026-04-13 18:12 54.24909 5.92345 789 ft 142 kts 197°
2026-04-13 18:12 54.24017 5.91830 1527 ft 133 kts 209°
2026-04-13 18:12 54.23248 5.90897 2014 ft 142 kts 212°
2026-04-13 18:13 54.22330 5.90311 2072 ft 141 kts 194°
2026-04-13 18:13 54.21393 5.89755 2010 ft 141 kts 185°
2026-04-13 18:13 54.20483 5.90116 1989 ft 133 kts 137°
2026-04-13 18:13 54.19829 5.91253 1895 ft 147 kts 127°
2026-04-13 18:14 54.19079 5.92605 2076 ft 158 kts 131°
2026-04-13 18:14 54.18308 5.93921 2308 ft 159 kts 130°
2026-04-13 18:14 54.17523 5.95266 2505 ft 160 kts 130°
2026-04-13 18:14 54.16727 5.96616 2713 ft 161 kts 131°
2026-04-13 18:15 54.15927 5.97963 2917 ft 162 kts 131°
2026-04-13 18:15 54.15132 5.99290 3115 ft 162 kts 131°
2026-04-13 18:15 54.14323 6.00642 3313 ft 163 kts 131°
2026-04-13 18:15 54.13512 6.01992 3514 ft 164 kts 131°
2026-04-13 18:16 54.12690 6.03360 3711 ft 165 kts 131°
2026-04-13 18:16 54.11877 6.04713 3918 ft 165 kts 131°
2026-04-13 18:16 54.11052 6.06078 4024 ft 166 kts 130°
2026-04-13 18:16 54.10211 6.07489 4023 ft 168 kts 129°
2026-04-13 18:17 54.09387 6.08868 4020 ft 168 kts 130°
2026-04-13 18:17 54.08543 6.10273 4014 ft 167 kts 129°
2026-04-13 18:17 54.07717 6.11646 4004 ft 167 kts 130°
2026-04-13 18:17 54.06882 6.13031 3992 ft 167 kts 130°
2026-04-13 18:18 54.06037 6.14430 3993 ft 167 kts 130°
2026-04-13 18:18 54.05210 6.15796 3987 ft 168 kts 130°
2026-04-13 18:18 54.04364 6.17193 3995 ft 168 kts 130°
2026-04-13 18:18 54.03530 6.18568 3998 ft 168 kts 129°
2026-04-13 18:19 54.02685 6.19961 3996 ft 168 kts 129°
2026-04-13 18:19 54.01849 6.21340 4004 ft 168 kts 129°
2026-04-13 18:19 54.01019 6.22710 4000 ft 168 kts 130°
2026-04-13 18:19 54.00174 6.24101 4007 ft 168 kts 129°
2026-04-13 18:20 53.99337 6.25482 3994 ft 168 kts 130°
2026-04-13 18:20 53.98493 6.26870 3985 ft 169 kts 130°
2026-04-13 18:20 53.97655 6.28247 3997 ft 168 kts 130°
2026-04-13 18:20 53.96812 6.29631 4004 ft 167 kts 130°
2026-04-13 18:21 53.95973 6.31009 3996 ft 168 kts 130°
2026-04-13 18:21 53.95142 6.32372 3990 ft 168 kts 130°
2026-04-13 18:21 53.94305 6.33745 3992 ft 167 kts 130°
2026-04-13 18:21 53.93467 6.35119 3987 ft 168 kts 130°
2026-04-13 18:22 53.92628 6.36492 3983 ft 168 kts 130°
2026-04-13 18:22 53.91782 6.37877 3992 ft 168 kts 130°
2026-04-13 18:22 53.90949 6.39241 3996 ft 168 kts 130°
2026-04-13 18:22 53.90103 6.40627 3988 ft 168 kts 130°
2026-04-13 18:23 53.89262 6.42003 3984 ft 168 kts 130°
2026-04-13 18:23 53.88425 6.43369 3993 ft 167 kts 130°
2026-04-13 18:23 53.87593 6.44726 3990 ft 167 kts 130°
2026-04-13 18:23 53.86750 6.46101 3987 ft 167 kts 130°
2026-04-13 18:24 53.85916 6.47460 3981 ft 167 kts 130°
2026-04-13 18:24 53.85075 6.48831 3976 ft 167 kts 130°
2026-04-13 18:24 53.84241 6.50189 3982 ft 167 kts 130°
2026-04-13 18:24 53.83403 6.51553 3992 ft 167 kts 130°
2026-04-13 18:25 53.82565 6.52918 3992 ft 167 kts 130°
2026-04-13 18:25 53.81734 6.54268 3991 ft 167 kts 130°
2026-04-13 18:25 53.80885 6.55647 3985 ft 168 kts 130°
2026-04-13 18:25 53.80045 6.57010 3977 ft 168 kts 130°
2026-04-13 18:26 53.79200 6.58382 3982 ft 168 kts 130°
2026-04-13 18:26 53.78357 6.59750 3990 ft 168 kts 130°
2026-04-13 18:26 53.77514 6.61118 3988 ft 168 kts 130°
2026-04-13 18:26 53.76666 6.62493 3985 ft 168 kts 130°
2026-04-13 18:27 53.75825 6.63852 3990 ft 168 kts 130°
2026-04-13 18:27 53.74982 6.65215 3995 ft 167 kts 131°
2026-04-13 18:27 53.74150 6.66561 3988 ft 167 kts 131°
2026-04-13 18:27 53.73314 6.67915 3989 ft 167 kts 131°
2026-04-13 18:28 53.72464 6.69288 3981 ft 168 kts 131°
2026-04-13 18:28 53.71619 6.70651 3986 ft 168 kts 131°
2026-04-13 18:28 53.70780 6.72004 3987 ft 168 kts 131°
2026-04-13 18:28 53.70101 6.73100 3990 ft 168 kts 131°
2026-04-13 18:29 53.69249 6.74474 3994 ft 168 kts 131°
2026-04-13 18:29 53.68406 6.75833 3989 ft 168 kts 131°
2026-04-13 18:29 53.67563 6.77191 3979 ft 168 kts 131°
2026-04-13 18:29 53.66726 6.78537 3982 ft 168 kts 131°
2026-04-13 18:30 53.65881 6.79896 3985 ft 167 kts 131°
2026-04-13 18:30 53.65032 6.81259 3986 ft 167 kts 131°
2026-04-13 18:30 53.64197 6.82601 3982 ft 167 kts 131°
2026-04-13 18:30 53.63355 6.83950 3979 ft 168 kts 131°
2026-04-13 18:31 53.62511 6.85305 3981 ft 168 kts 131°
2026-04-13 18:31 53.61664 6.86663 3984 ft 168 kts 131°
2026-04-13 18:31 53.60821 6.88016 3979 ft 168 kts 131°
2026-04-13 18:31 53.59965 6.89387 3985 ft 168 kts 131°
2026-04-13 18:32 53.59124 6.90731 3992 ft 167 kts 131°
2026-04-13 18:32 53.58278 6.92084 3906 ft 167 kts 130°
2026-04-13 18:32 53.57446 6.93422 3732 ft 167 kts 130°
2026-04-13 18:32 53.56611 6.94766 3546 ft 166 kts 130°
2026-04-13 18:33 53.55765 6.96118 3356 ft 166 kts 130°
2026-04-13 18:33 53.54929 6.97455 3167 ft 166 kts 130°
2026-04-13 18:33 53.54092 6.98793 2982 ft 166 kts 131°
2026-04-13 18:34 53.52419 7.01450 2941 ft 166 kts 132°
2026-04-13 18:34 53.51581 7.02775 2961 ft 166 kts 132°
2026-04-13 18:34 53.50747 7.04098 2885 ft 165 kts 130°
2026-04-13 18:34 53.49904 7.05445 2711 ft 165 kts 130°
2026-04-13 18:35 53.49085 7.06757 2535 ft 165 kts 130°
2026-04-13 18:35 53.48245 7.08094 2347 ft 164 kts 130°
2026-04-13 18:35 53.47429 7.09404 2156 ft 162 kts 130°
2026-04-13 18:35 53.46606 7.10706 1965 ft 162 kts 130°
2026-04-13 18:36 53.45793 7.11993 1772 ft 161 kts 130°
2026-04-13 18:36 53.44980 7.13278 1768 ft 146 kts 130°
2026-04-13 18:36 53.44344 7.14264 1858 ft 111 kts 124°
2026-04-13 18:36 53.43983 7.14847 1661 ft 104 kts 122°
2026-04-13 18:37 53.43644 7.15406 1444 ft 103 kts 123°
2026-04-13 18:37 53.42965 7.16515 1060 ft 102 kts 124°
2026-04-13 18:37 53.42348 7.17149 968 ft 106 kts 152°
2026-04-13 18:37 53.41625 7.17321 1004 ft 102 kts 163°
2026-04-13 18:38 53.40928 7.17576 1042 ft 106 kts 170°
2026-04-13 18:38 53.40210 7.17786 1147 ft 106 kts 164°
2026-04-13 18:38 53.39435 7.17984 1005 ft 117 kts 162°
2026-04-13 18:38 53.38657 7.18383 925 ft 111 kts 140°
2026-04-13 18:39 53.38308 7.19319 843 ft 97 kts 67°
2026-04-13 18:39 53.38612 7.20419 415 ft 110 kts 49°
2026-04-13 18:39 53.38894 7.21471 195 ft 85 kts 63°
2026-04-13 18:39 53.39032 7.22239 60 ft 52 kts 61°
2026-04-13 18:40 53.39102 7.22623 8 ft 16 kts 71°
2026-04-13 18:40 53.39115 7.22658 -1 ft 0 kts 82°
2026-04-13 18:40 53.39119 7.22692 0 ft 5 kts 76°
2026-04-13 18:40 53.39140 7.22806 0 ft 16 kts 71°
2026-04-13 18:41 53.39173 7.22983 -1 ft 15 kts 68°
2026-04-13 18:41 53.39169 7.23094 -1 ft 4 kts 140°
2026-04-13 18:41 53.39153 7.23101 -1 ft 5 kts 179°
2026-04-13 18:41 53.39101 7.23090 -1 ft 8 kts 190°
2026-04-13 18:42 53.39036 7.23076 0 ft 9 kts 185°
2026-04-13 18:42 53.38969 7.23061 0 ft 9 kts 192°
2026-04-13 18:42 53.38951 7.23030 1 ft 0 kts 255°